createdAt,value
2018-03-18T00:01:16.381Z,101734
2018-03-18T00:03:44.603Z,101727
2018-03-18T00:06:13.592Z,101734
2018-03-18T00:08:42.677Z,101733
2018-03-18T00:11:11.716Z,101725
2018-03-18T00:13:41.075Z,101737
2018-03-18T00:16:09.396Z,101740
2018-03-18T00:18:38.681Z,101744
2018-03-18T00:21:06.946Z,101741
2018-03-18T00:23:35.203Z,101750
2018-03-18T00:26:03.402Z,101743
2018-03-18T00:28:31.594Z,101754
2018-03-18T00:30:59.827Z,101742
2018-03-18T00:33:28.043Z,101751
2018-03-18T00:35:56.392Z,101757
2018-03-18T00:38:25.326Z,101746
2018-03-18T00:40:53.523Z,101760
2018-03-18T00:43:21.718Z,101746
2018-03-18T00:45:50.697Z,101744
2018-03-18T00:48:18.850Z,101756
2018-03-18T00:50:47.042Z,101756
2018-03-18T00:53:15.325Z,101752
2018-03-18T00:55:43.526Z,101773
2018-03-18T00:58:11.745Z,101761
2018-03-18T01:00:40.874Z,101753
2018-03-18T01:03:09.065Z,101750
2018-03-18T01:05:38.128Z,101765
2018-03-18T01:08:06.357Z,101752
2018-03-18T01:10:34.581Z,101759
2018-03-18T01:13:03.545Z,101750
2018-03-18T01:15:31.918Z,101754
2018-03-18T01:18:00.322Z,101753
2018-03-18T01:20:28.531Z,101748
2018-03-18T01:22:56.762Z,101748
2018-03-18T01:25:24.972Z,101746
2018-03-18T01:27:53.207Z,101747
2018-03-18T01:30:21.433Z,101750
2018-03-18T01:32:49.655Z,101751
2018-03-18T01:35:18.693Z,101745
2018-03-18T01:37:46.857Z,101746
2018-03-18T01:40:15.021Z,101757
2018-03-18T01:42:43.955Z,101760
2018-03-18T01:45:12.130Z,101747
2018-03-18T01:47:40.344Z,101762
2018-03-18T01:50:08.572Z,101741
2018-03-18T01:52:36.753Z,101753
2018-03-18T01:55:04.911Z,101755
2018-03-18T01:57:33.090Z,101749
2018-03-18T02:00:01.284Z,101751
2018-03-18T02:02:29.532Z,101745
2018-03-18T02:04:57.716Z,101741
2018-03-18T02:07:26.049Z,101746
2018-03-18T02:09:55.060Z,101735
2018-03-18T02:12:23.248Z,101747
2018-03-18T02:14:51.535Z,101738
2018-03-18T02:17:19.760Z,101746
2018-03-18T02:19:47.990Z,101747
2018-03-18T02:22:16.173Z,101735
2018-03-18T02:24:44.408Z,101738
2018-03-18T02:27:12.599Z,101733
2018-03-18T02:29:40.779Z,101744
2018-03-18T02:32:08.976Z,101742
2018-03-18T02:34:37.206Z,101741
2018-03-18T02:37:05.496Z,101748
2018-03-18T02:39:33.716Z,101745
2018-03-18T02:42:01.932Z,101736
2018-03-18T02:44:30.111Z,101741
2018-03-18T02:46:58.520Z,101730
2018-03-18T02:49:26.726Z,101741
2018-03-18T02:51:55.684Z,101732
2018-03-18T02:54:23.869Z,101734
2018-03-18T02:56:52.062Z,101735
2018-03-18T02:59:21.948Z,101727
2018-03-18T03:01:50.192Z,101740
2018-03-18T03:04:18.404Z,101741
2018-03-18T03:06:46.648Z,101730
2018-03-18T03:09:14.876Z,101719
2018-03-18T03:11:43.055Z,101732
2018-03-18T03:14:11.995Z,101721
2018-03-18T03:16:40.252Z,101727
2018-03-18T03:19:08.482Z,101731
2018-03-18T03:21:36.744Z,101728
2018-03-18T03:24:05.010Z,101729
2018-03-18T03:26:33.283Z,101728
2018-03-18T03:29:01.470Z,101731
2018-03-18T03:31:29.716Z,101728
2018-03-18T03:33:57.903Z,101731
2018-03-18T03:36:26.116Z,101740
2018-03-18T03:38:55.063Z,101744
2018-03-18T03:41:23.280Z,101739
2018-03-18T03:43:52.236Z,101734
2018-03-18T03:46:20.468Z,101727
2018-03-18T03:48:48.641Z,101727
2018-03-18T03:51:16.815Z,101745
2018-03-18T03:53:45.494Z,101746
2018-03-18T03:56:13.690Z,101748
2018-03-18T03:58:41.949Z,101746
2018-03-18T04:01:10.665Z,101746
2018-03-18T04:03:38.897Z,101741
2018-03-18T04:06:07.079Z,101739
2018-03-18T04:08:35.316Z,101737
2018-03-18T04:11:03.552Z,101746
2018-03-18T04:13:31.794Z,101753
2018-03-18T04:16:00.053Z,101744
2018-03-18T04:18:28.996Z,101743
2018-03-18T04:20:57.200Z,101754
2018-03-18T04:23:25.384Z,101752
2018-03-18T04:25:53.604Z,101752
2018-03-18T04:28:21.807Z,101750
2018-03-18T04:30:50.024Z,101747
2018-03-18T04:33:18.203Z,101760
2018-03-18T04:35:46.382Z,101755
2018-03-18T04:38:14.560Z,101750
2018-03-18T04:40:42.759Z,101763
2018-03-18T04:43:10.948Z,101753
2018-03-18T04:45:39.137Z,101756
2018-03-18T04:48:07.367Z,101766
2018-03-18T04:50:35.574Z,101757
2018-03-18T04:53:03.767Z,101760
2018-03-18T04:55:32.724Z,101759
2018-03-18T04:58:00.959Z,101764
2018-03-18T05:00:29.212Z,101760
2018-03-18T05:02:58.174Z,101765
2018-03-18T05:05:26.912Z,101763
2018-03-18T05:07:55.184Z,101764
2018-03-18T05:10:23.390Z,101761
2018-03-18T05:12:51.603Z,101765
2018-03-18T05:15:19.867Z,101764
2018-03-18T05:17:48.109Z,101779
2018-03-18T05:20:16.352Z,101776
2018-03-18T05:22:44.582Z,101780
2018-03-18T05:25:12.787Z,101778
2018-03-18T05:27:40.961Z,101777
2018-03-18T05:30:09.887Z,101770
2018-03-18T05:32:38.091Z,101782
2018-03-18T05:35:06.271Z,101780
2018-03-18T05:37:34.443Z,101781
2018-03-18T05:40:02.640Z,101785
2018-03-18T05:42:30.852Z,101791
2018-03-18T05:44:59.012Z,101791
2018-03-18T05:47:27.185Z,101791
2018-03-18T05:49:55.374Z,101798
2018-03-18T05:52:23.531Z,101805
2018-03-18T05:54:51.719Z,101814
2018-03-18T05:57:19.943Z,101814
2018-03-18T05:59:48.178Z,101820
2018-03-18T06:02:16.387Z,101819
2018-03-18T06:04:44.576Z,101823
2018-03-18T06:07:13.503Z,101818
2018-03-18T06:09:41.690Z,101820
2018-03-18T06:12:09.871Z,101824
2018-03-18T06:14:38.075Z,101822
2018-03-18T06:17:08.067Z,101823
2018-03-18T06:19:36.255Z,101824
2018-03-18T06:22:04.439Z,101821
2018-03-18T06:24:33.717Z,101821
2018-03-18T06:27:01.900Z,101823
2018-03-18T06:29:30.099Z,101832
2018-03-18T06:31:59.079Z,101822
2018-03-18T06:34:28.069Z,101823
2018-03-18T06:36:56.256Z,101837
2018-03-18T06:39:26.156Z,101844
2018-03-18T06:41:54.364Z,101833
2018-03-18T06:44:22.538Z,101838
2018-03-18T06:46:50.736Z,101836
2018-03-18T06:49:18.960Z,101841
2018-03-18T06:51:47.948Z,101850
2018-03-18T06:54:16.929Z,101839
2018-03-18T06:56:45.116Z,101848
2018-03-18T06:59:14.060Z,101842
2018-03-18T07:01:42.252Z,101847
2018-03-18T07:04:10.460Z,101834
2018-03-18T07:06:39.402Z,101848
2018-03-18T07:09:07.639Z,101843
2018-03-18T07:11:35.973Z,101848
2018-03-18T07:14:04.173Z,101840
2018-03-18T07:16:33.116Z,101851
2018-03-18T07:19:03.405Z,101846
2018-03-18T07:21:31.677Z,101853
2018-03-18T07:23:59.962Z,101852
2018-03-18T07:26:28.165Z,101850
2018-03-18T07:28:56.499Z,101856
2018-03-18T07:31:24.792Z,101853
2018-03-18T07:33:53.043Z,101840
2018-03-18T07:36:21.991Z,101863
2018-03-18T07:38:51.025Z,101838
2018-03-18T07:41:19.216Z,101846
2018-03-18T07:43:47.481Z,101858
2018-03-18T07:46:15.667Z,101862
2018-03-18T07:48:43.848Z,101863
2018-03-18T07:51:12.107Z,101856
2018-03-18T07:53:40.295Z,101848
2018-03-18T07:56:08.509Z,101850
2018-03-18T07:58:36.727Z,101847
2018-03-18T08:01:04.946Z,101860
2018-03-18T08:03:33.232Z,101853
2018-03-18T08:06:01.404Z,101856
2018-03-18T08:08:29.590Z,101851
2018-03-18T08:10:57.780Z,101871
2018-03-18T08:13:26.748Z,101851
2018-03-18T08:15:54.993Z,101861
2018-03-18T08:18:23.272Z,101854
2018-03-18T08:20:51.466Z,101850
2018-03-18T08:23:22.310Z,101862
2018-03-18T08:25:50.520Z,101874
2018-03-18T08:28:18.766Z,101874
2018-03-18T08:30:47.791Z,101865
2018-03-18T08:33:15.975Z,101864
2018-03-18T08:35:44.145Z,101872
2018-03-18T08:38:12.999Z,101874
2018-03-18T08:40:42.024Z,101870
2018-03-18T08:43:10.220Z,101854
2018-03-18T08:45:38.483Z,101854
2018-03-18T08:48:06.701Z,101860
2018-03-18T08:50:34.883Z,101854
2018-03-18T08:53:03.937Z,101853
2018-03-18T08:55:32.114Z,101856
2018-03-18T08:58:00.330Z,101848
2018-03-18T09:00:29.283Z,101856
2018-03-18T09:02:57.550Z,101850
2018-03-18T09:05:25.838Z,101851
2018-03-18T09:07:54.076Z,101869
2018-03-18T09:10:22.280Z,101850
2018-03-18T09:12:50.569Z,101855
2018-03-18T09:15:18.809Z,101840
2018-03-18T09:17:47.096Z,101855
2018-03-18T09:20:15.226Z,101854
2018-03-18T09:22:43.441Z,101847
2018-03-18T09:25:11.843Z,101840
2018-03-18T09:27:40.187Z,101843
2018-03-18T09:30:08.335Z,101851
2018-03-18T09:32:37.820Z,101839
2018-03-18T09:35:06.825Z,101843
2018-03-18T09:37:35.072Z,101841
2018-03-18T09:40:03.304Z,101840
2018-03-18T09:42:31.541Z,101851
2018-03-18T09:45:00.609Z,101843
2018-03-18T09:47:28.852Z,101842
2018-03-18T09:49:57.184Z,101852
2018-03-18T09:52:26.292Z,101843
2018-03-18T09:54:56.349Z,101842
2018-03-18T09:57:24.715Z,101830
2018-03-18T09:59:53.004Z,101832
2018-03-18T10:02:21.293Z,101835
2018-03-18T10:04:49.521Z,101837
2018-03-18T10:07:17.711Z,101839
2018-03-18T10:09:45.964Z,101837
2018-03-18T10:12:14.164Z,101836
2018-03-18T10:14:42.471Z,101843
2018-03-18T10:17:10.731Z,101848
2018-03-18T10:19:39.003Z,101836
2018-03-18T10:22:07.236Z,101856
2018-03-18T10:24:35.442Z,101858
2018-03-18T10:27:07.510Z,101861
2018-03-18T10:29:37.064Z,101849
2018-03-18T10:32:13.168Z,101854
2018-03-18T10:34:46.176Z,101850
2018-03-18T10:37:46.491Z,101850
2018-03-18T10:40:14.929Z,101850
2018-03-18T10:42:44.526Z,101847
2018-03-18T10:45:25.084Z,101840
2018-03-18T10:47:54.887Z,101846
2018-03-18T10:50:24.522Z,101838
2018-03-18T10:52:53.060Z,101827
2018-03-18T10:55:22.498Z,101849
2018-03-18T10:57:51.085Z,101846
2018-03-18T11:00:21.317Z,101826
2018-03-18T11:02:52.049Z,101832
2018-03-18T11:05:21.963Z,101833
2018-03-18T11:07:52.012Z,101831
2018-03-18T11:10:22.605Z,101819
2018-03-18T11:12:51.065Z,101824
2018-03-18T11:15:19.616Z,101817
2018-03-18T11:17:48.925Z,101813
2018-03-18T11:20:17.355Z,101812
2018-03-18T11:22:53.012Z,101818
2018-03-18T11:25:21.487Z,101816
2018-03-18T11:27:50.516Z,101817
2018-03-18T11:30:20.784Z,101818
2018-03-18T11:32:49.448Z,101820
2018-03-18T11:35:22.000Z,101823
2018-03-18T11:37:55.565Z,101822
2018-03-18T11:40:28.860Z,101809
2018-03-18T11:43:00.414Z,101815
2018-03-18T11:45:40.837Z,101811
2018-03-18T11:48:11.663Z,101818
2018-03-18T11:50:41.594Z,101803
2018-03-18T11:53:12.865Z,101808
2018-03-18T11:55:41.243Z,101805
2018-03-18T11:58:09.605Z,101802
2018-03-18T12:00:38.065Z,101809
2018-03-18T12:03:07.129Z,101807
2018-03-18T12:05:36.296Z,101807
2018-03-18T12:08:04.747Z,101796
2018-03-18T12:10:33.252Z,101800
2018-03-18T12:13:04.006Z,101803
2018-03-18T12:15:33.072Z,101803
2018-03-18T12:18:02.323Z,101793
2018-03-18T12:20:31.881Z,101794
2018-03-18T12:23:01.047Z,101797
2018-03-18T12:25:30.115Z,101786
2018-03-18T12:28:00.348Z,101782
2018-03-18T12:30:30.052Z,101781
2018-03-18T12:32:58.528Z,101789
2018-03-18T12:35:27.438Z,101788
2018-03-18T12:37:55.746Z,101784
2018-03-18T12:40:34.035Z,101773
2018-03-18T12:43:20.214Z,101758
2018-03-18T12:45:49.874Z,101775
2018-03-18T12:48:18.171Z,101768
2018-03-18T12:50:46.460Z,101768
2018-03-18T12:53:14.689Z,101762
2018-03-18T12:55:42.909Z,101760
2018-03-18T12:58:11.090Z,101767
2018-03-18T13:00:40.420Z,101752
2018-03-18T13:03:10.401Z,101758
2018-03-18T13:05:38.779Z,101753
2018-03-18T13:08:07.878Z,101747
2018-03-18T13:10:36.988Z,101765
2018-03-18T13:13:05.320Z,101752
2018-03-18T13:15:33.949Z,101747
2018-03-18T13:18:02.167Z,101755
2018-03-18T13:20:31.416Z,101744
2018-03-18T13:23:00.479Z,101750
2018-03-18T13:25:33.731Z,101742
2018-03-18T13:28:02.081Z,101740
2018-03-18T13:30:31.419Z,101734
2018-03-18T13:33:03.841Z,101732
2018-03-18T13:35:32.315Z,101742
2018-03-18T13:38:01.455Z,101728
2018-03-18T13:40:29.898Z,101725
2018-03-18T13:42:58.284Z,101730
2018-03-18T13:45:26.554Z,101727
2018-03-18T13:47:55.629Z,101748
2018-03-18T13:50:23.882Z,101737
2018-03-18T13:52:52.081Z,101730
2018-03-18T13:55:20.621Z,101728
2018-03-18T13:57:48.921Z,101731
2018-03-18T14:00:17.560Z,101742
2018-03-18T14:02:46.738Z,101731
2018-03-18T14:05:16.549Z,101735
2018-03-18T14:07:44.846Z,101718
2018-03-18T14:10:13.837Z,101712
2018-03-18T14:12:42.089Z,101718
2018-03-18T14:15:11.114Z,101721
2018-03-18T14:17:39.466Z,101713
2018-03-18T14:20:08.387Z,101715
2018-03-18T14:22:36.665Z,101722
2018-03-18T14:25:04.975Z,101710
2018-03-18T14:27:33.353Z,101717
2018-03-18T14:30:02.363Z,101711
2018-03-18T14:32:32.501Z,101716
2018-03-18T14:35:02.152Z,101700
2018-03-18T14:37:30.312Z,101705
2018-03-18T14:39:58.521Z,101695
2018-03-18T14:42:28.329Z,101698
2018-03-18T14:44:57.512Z,101700
2018-03-18T14:47:25.805Z,101697
2018-03-18T14:49:54.844Z,101695
2018-03-18T14:52:23.310Z,101692
2018-03-18T14:54:53.340Z,101693
2018-03-18T14:57:21.735Z,101705
2018-03-18T14:59:50.048Z,101695
2018-03-18T15:02:19.864Z,101699
2018-03-18T15:04:49.228Z,101695
2018-03-18T15:07:17.641Z,101682
2018-03-18T15:09:46.091Z,101685
2018-03-18T15:12:14.539Z,101696
2018-03-18T15:14:43.636Z,101696
2018-03-18T15:17:13.857Z,101698
2018-03-18T15:19:42.443Z,101691
2018-03-18T15:22:10.829Z,101679
2018-03-18T15:24:39.866Z,101684
2018-03-18T15:27:08.437Z,101681
2018-03-18T15:29:38.184Z,101680
2018-03-18T15:34:44.936Z,101682
2018-03-18T15:37:17.892Z,101691
2018-03-18T15:40:00.502Z,101681
2018-03-18T15:42:29.706Z,101681
2018-03-18T15:45:00.502Z,101684
2018-03-18T15:50:11.085Z,101669
2018-03-18T15:52:42.615Z,101684
2018-03-18T15:55:11.937Z,101683
2018-03-18T15:58:07.330Z,101694
2018-03-18T16:00:53.934Z,101692
2018-03-18T16:03:28.030Z,101689
2018-03-18T16:06:09.177Z,101689
2018-03-18T16:08:42.463Z,101686
2018-03-18T16:11:15.083Z,101699
2018-03-18T16:13:52.951Z,101689
2018-03-18T16:16:30.264Z,101682
2018-03-18T16:19:18.816Z,101682
2018-03-18T16:21:50.379Z,101686
2018-03-18T16:24:23.383Z,101683
2018-03-18T16:27:04.873Z,101676
2018-03-18T16:32:35.689Z,101682
2018-03-18T16:35:04.239Z,101682
2018-03-18T16:37:34.588Z,101690
2018-03-18T16:40:03.026Z,101681
2018-03-18T16:42:33.188Z,101678
2018-03-18T16:45:02.316Z,101676
2018-03-18T16:47:32.503Z,101683
2018-03-18T16:50:00.717Z,101691
2018-03-18T16:52:29.724Z,101684
2018-03-18T16:54:58.044Z,101691
2018-03-18T16:57:26.344Z,101686
2018-03-18T16:59:54.580Z,101691
2018-03-18T17:02:22.826Z,101696
2018-03-18T17:04:51.153Z,101684
2018-03-18T17:07:19.382Z,101692
2018-03-18T17:09:47.580Z,101693
2018-03-18T17:12:15.855Z,101686
2018-03-18T17:14:44.106Z,101695
2018-03-18T17:17:12.997Z,101695
2018-03-18T17:19:41.203Z,101692
2018-03-18T17:22:13.241Z,101697
2018-03-18T17:24:41.493Z,101709
2018-03-18T17:27:10.638Z,101704
2018-03-18T17:29:38.872Z,101707
2018-03-18T17:32:07.176Z,101712
2018-03-18T17:34:35.567Z,101715
2018-03-18T17:37:03.865Z,101717
2018-03-18T17:39:32.071Z,101708
2018-03-18T17:42:00.258Z,101720
2018-03-18T17:44:46.218Z,101720
2018-03-18T17:47:31.997Z,101725
2018-03-18T17:50:18.725Z,101731
2018-03-18T17:53:04.620Z,101730
2018-03-18T17:55:33.142Z,101731
2018-03-18T17:58:01.933Z,101741
2018-03-18T18:00:30.210Z,101746
2018-03-18T18:02:59.507Z,101752
2018-03-18T18:05:27.735Z,101751
2018-03-18T18:07:55.903Z,101760
2018-03-18T18:10:24.145Z,101759
2018-03-18T18:12:52.388Z,101763
2018-03-18T18:15:20.855Z,101769
2018-03-18T18:17:49.081Z,101755
2018-03-18T18:20:17.290Z,101765
2018-03-18T18:22:45.552Z,101763
2018-03-18T18:25:14.747Z,101769
2018-03-18T18:27:43.031Z,101759
2018-03-18T18:30:11.240Z,101766
2018-03-18T18:32:39.498Z,101757
2018-03-18T18:35:08.969Z,101759
2018-03-18T18:37:37.954Z,101772
2018-03-18T18:40:06.219Z,101766
2018-03-18T18:42:35.361Z,101763
2018-03-18T18:45:03.585Z,101773
2018-03-18T18:47:31.952Z,101766
2018-03-18T18:50:00.131Z,101765
2018-03-18T18:52:28.374Z,101760
2018-03-18T18:54:56.800Z,101771
2018-03-18T18:57:25.747Z,101777
2018-03-18T18:59:54.179Z,101773
2018-03-18T19:02:23.206Z,101784
2018-03-18T19:04:51.459Z,101779
2018-03-18T19:07:19.904Z,101797
2018-03-18T19:09:49.276Z,101785
2018-03-18T19:12:17.486Z,101785
2018-03-18T19:14:46.570Z,101785
2018-03-18T19:17:15.738Z,101793
2018-03-18T19:19:44.018Z,101796
2018-03-18T19:22:12.295Z,101793
2018-03-18T19:24:40.517Z,101800
2018-03-18T19:27:09.501Z,101796
2018-03-18T19:29:38.913Z,101801
2018-03-18T19:32:07.958Z,101796
2018-03-18T19:34:36.282Z,101806
2018-03-18T19:37:05.290Z,101814
2018-03-18T19:39:33.786Z,101804
2018-03-18T19:42:01.977Z,101809
2018-03-18T19:44:30.850Z,101808
2018-03-18T19:46:59.213Z,101802
2018-03-18T19:49:27.568Z,101815
2018-03-18T19:51:56.630Z,101809
2018-03-18T19:54:25.647Z,101817
2018-03-18T19:56:54.772Z,101814
2018-03-18T19:59:22.996Z,101820
2018-03-18T20:01:51.269Z,101815
2018-03-18T20:04:19.572Z,101809
2018-03-18T20:06:48.523Z,101821
2018-03-18T20:09:16.880Z,101821
2018-03-18T20:11:45.188Z,101824
2018-03-18T20:14:13.464Z,101820
2018-03-18T20:16:41.737Z,101820
2018-03-18T20:19:10.978Z,101821
2018-03-18T20:21:39.980Z,101825
2018-03-18T20:24:08.333Z,101822
2018-03-18T20:26:37.348Z,101830
2018-03-18T20:29:05.634Z,101827
2018-03-18T20:31:34.627Z,101827
2018-03-18T20:34:02.883Z,101829
2018-03-18T20:36:31.197Z,101839
2018-03-18T20:38:59.498Z,101829
2018-03-18T20:41:29.168Z,101840
2018-03-18T20:43:58.143Z,101839
2018-03-18T20:46:26.460Z,101832
2018-03-18T20:48:55.404Z,101839
2018-03-18T20:51:23.961Z,101839
2018-03-18T20:53:53.636Z,101848
2018-03-18T20:56:21.920Z,101841
2018-03-18T20:58:50.145Z,101847
2018-03-18T21:01:19.359Z,101844
2018-03-18T21:03:48.511Z,101844
2018-03-18T21:06:20.357Z,101838
2018-03-18T21:08:49.567Z,101848
2018-03-18T21:11:18.532Z,101845
2018-03-18T21:13:46.909Z,101835
2018-03-18T21:16:15.148Z,101837
2018-03-18T21:18:44.005Z,101836
2018-03-18T21:21:12.212Z,101847
2018-03-18T21:23:41.421Z,101851
2018-03-18T21:26:09.647Z,101841
2018-03-18T21:28:38.665Z,101840
2018-03-18T21:31:07.194Z,101844
2018-03-18T21:33:36.158Z,101851
2018-03-18T21:36:05.352Z,101839
2018-03-18T21:38:33.686Z,101835
2018-03-18T21:41:01.962Z,101846
2018-03-18T21:43:30.291Z,101832
2018-03-18T21:45:58.658Z,101834
2018-03-18T21:48:26.870Z,101833
2018-03-18T21:50:55.088Z,101834
2018-03-18T21:53:23.370Z,101842
2018-03-18T21:55:51.678Z,101834
2018-03-18T21:58:19.866Z,101834
2018-03-18T22:00:49.122Z,101833
2018-03-18T22:03:17.435Z,101834
2018-03-18T22:05:45.614Z,101833
2018-03-18T22:08:13.913Z,101828
2018-03-18T22:10:42.163Z,101829
2018-03-18T22:13:10.642Z,101832
2018-03-18T22:15:38.889Z,101825
2018-03-18T22:18:07.873Z,101823
2018-03-18T22:20:36.060Z,101830
2018-03-18T22:23:04.292Z,101835
2018-03-18T22:25:33.329Z,101829
2018-03-18T22:28:01.560Z,101823
2018-03-18T22:30:30.561Z,101828
2018-03-18T22:32:58.903Z,101826
2018-03-18T22:35:27.942Z,101833
2018-03-18T22:37:56.186Z,101833
2018-03-18T22:40:25.187Z,101834
2018-03-18T22:42:53.411Z,101832
2018-03-18T22:45:21.802Z,101829
2018-03-18T22:47:50.071Z,101832
2018-03-18T22:50:18.349Z,101828
2018-03-18T22:52:46.876Z,101827
2018-03-18T22:55:15.959Z,101820
2018-03-18T22:57:44.238Z,101820
2018-03-18T23:00:18.155Z,101823
2018-03-18T23:02:46.422Z,101822
2018-03-18T23:05:15.201Z,101819
2018-03-18T23:07:43.374Z,101822
2018-03-18T23:10:12.342Z,101818
2018-03-18T23:12:40.550Z,101823
2018-03-18T23:15:09.700Z,101823
2018-03-18T23:17:37.907Z,101823
2018-03-18T23:20:06.142Z,101818
2018-03-18T23:22:34.353Z,101819
2018-03-18T23:25:02.592Z,101819
2018-03-18T23:27:31.793Z,101810
2018-03-18T23:30:00.021Z,101809
2018-03-18T23:32:29.012Z,101819
2018-03-18T23:34:57.958Z,101821
2018-03-18T23:37:26.187Z,101822
2018-03-18T23:39:54.395Z,101822
2018-03-18T23:42:22.582Z,101822
2018-03-18T23:44:50.759Z,101819
2018-03-18T23:47:18.927Z,101826
2018-03-18T23:49:47.196Z,101823
2018-03-18T23:52:15.344Z,101821
2018-03-18T23:54:43.543Z,101820
2018-03-18T23:57:14.584Z,101820
2018-03-18T23:59:42.772Z,101817
